Time;durP1;ratioP1;P1;durP2;ratioP2;P2;SDS_P1;SDS_P2;PMS_P1;PMS_P2;Temp;Humidity;BMP_temperature;BMP_pressure;BME280_temperature;BME280_humidity;BME280_pressure;Samples;Min_cycle;Max_cycle;Signal;HPM_P1;HPM_P2
2023/04/09 00:00:48;;;;;;;41.23;29.37;;;;;;;;;;5077324;28;20062;-74
2023/04/09 00:03:14;;;;;;;40.13;29.13;;;;;;;;;;5091619;28;20038;-74
2023/04/09 00:05:40;;;;;;;41.77;28.70;;;;;;;;;;5076993;28;20103;-74
2023/04/09 00:08:06;;;;;;;50.80;31.30;;;;;;;;;;5075178;28;20035;-75
2023/04/09 00:10:32;;;;;;;44.00;30.00;;;;;;;;;;5089514;28;20029;-75
2023/04/09 00:12:59;;;;;;;42.83;29.53;;;;;;;;;;5073932;28;20028;-74
2023/04/09 00:15:29;;;;;;;45.00;30.10;;;;;;;;;;5075510;28;20024;-74
2023/04/09 00:17:55;;;;;;;41.23;29.40;;;;;;;;;;5070952;28;20032;-74
2023/04/09 00:20:21;;;;;;;47.63;31.80;;;;;;;;;;5071088;28;20021;-74
2023/04/09 00:22:48;;;;;;;46.77;30.87;;;;;;;;;;5074058;28;20028;-74
2023/04/09 00:25:17;;;;;;;45.80;30.60;;;;;;;;;;5074044;28;20433;-74
2023/04/09 00:27:54;;;;;;;44.10;30.03;;;;;;;;;;5074927;28;20019;-76
2023/04/09 00:30:20;;;;;;;44.43;30.77;;;;;;;;;;5070119;28;20047;-74
2023/04/09 00:32:46;;;;;;;42.73;30.40;;;;;;;;;;5088620;28;20054;-75
2023/04/09 00:35:12;;;;;;;46.13;31.67;;;;;;;;;;5070924;28;20032;-74
2023/04/09 00:37:38;;;;;;;47.33;30.67;;;;;;;;;;5070247;28;20056;-74
2023/04/09 00:40:05;;;;;;;50.50;31.63;;;;;;;;;;5089563;28;20016;-74
2023/04/09 00:42:35;;;;;;;46.47;32.53;;;;;;;;;;5087583;28;20024;-75
2023/04/09 00:45:01;;;;;;;44.83;30.93;;;;;;;;;;5071630;28;20043;-74
2023/04/09 00:47:30;;;;;;;49.13;31.63;;;;;;;;;;5071452;28;20149;-74
2023/04/09 00:49:57;;;;;;;45.53;31.13;;;;;;;;;;5074199;28;20095;-74
2023/04/09 00:52:23;;;;;;;51.50;33.27;;;;;;;;;;5071370;28;20025;-74
2023/04/09 00:54:50;;;;;;;47.90;32.50;;;;;;;;;;5088381;28;20024;-74
2023/04/09 00:57:16;;;;;;;49.50;32.97;;;;;;;;;;5071655;28;20063;-74
2023/04/09 00:59:45;;;;;;;46.77;32.13;;;;;;;;;;5070614;28;20027;-74
2023/04/09 01:02:11;;;;;;;49.40;31.97;;;;;;;;;;5086166;28;20017;-74
2023/04/09 01:04:39;;;;;;;52.10;33.60;;;;;;;;;;5073408;28;20063;-74
2023/04/09 01:07:32;;;;;;;49.53;34.77;;;;;;;;;;5070929;28;20036;-74
2023/04/09 01:10:09;;;;;;;53.40;36.30;;;;;;;;;;5035328;28;20056;-74
2023/04/09 01:12:43;;;;;;;56.20;35.13;;;;;;;;;;5070147;28;20066;-74
2023/04/09 01:15:10;;;;;;;46.97;33.37;;;;;;;;;;5071080;28;20017;-74
2023/04/09 01:17:50;;;;;;;48.63;32.87;;;;;;;;;;5069708;28;20027;-74
2023/04/09 01:20:35;;;;;;;49.93;33.80;;;;;;;;;;5088751;28;20279;-74
2023/04/09 01:23:13;;;;;;;50.90;34.47;;;;;;;;;;5074232;28;20044;-75
2023/04/09 01:25:58;;;;;;;53.13;34.83;;;;;;;;;;5070397;28;20029;-74
2023/04/09 01:28:42;;;;;;;51.47;34.63;;;;;;;;;;5069980;28;21074;-74
2023/04/09 01:31:13;;;;;;;48.40;33.30;;;;;;;;;;5074449;28;20028;-74
2023/04/09 01:33:40;;;;;;;53.60;35.83;;;;;;;;;;5070876;28;20490;-74
2023/04/09 01:36:09;;;;;;;57.53;36.67;;;;;;;;;;5069997;28;20033;-74
2023/04/09 01:38:36;;;;;;;59.43;37.57;;;;;;;;;;5072442;28;20021;-74
2023/04/09 01:41:06;;;;;;;51.57;34.93;;;;;;;;;;5085988;28;20083;-74
2023/04/09 01:43:51;;;;;;;58.37;35.53;;;;;;;;;;5070047;28;20028;-73
2023/04/09 01:46:23;;;;;;;47.30;32.80;;;;;;;;;;5069019;28;20031;-74
2023/04/09 01:48:49;;;;;;;53.45;37.03;;;;;;;;;;5069450;28;20032;-74
2023/04/09 01:51:17;;;;;;;54.00;34.03;;;;;;;;;;5086518;28;20056;-75
2023/04/09 01:53:46;;;;;;;48.57;33.50;;;;;;;;;;5073011;28;20024;-74
2023/04/09 01:56:12;;;;;;;52.90;33.83;;;;;;;;;;5073800;28;20031;-75
2023/04/09 01:58:40;;;;;;;49.13;31.93;;;;;;;;;;5073361;28;20020;-74
2023/04/09 02:01:12;;;;;;;47.47;32.73;;;;;;;;;;5070092;28;20109;-74
2023/04/09 02:03:46;;;;;;;45.30;31.45;;;;;;;;;;5070710;28;20112;-74
2023/04/09 02:06:30;;;;;;;43.87;31.07;;;;;;;;;;5070074;28;20025;-74
2023/04/09 02:09:00;;;;;;;48.53;32.20;;;;;;;;;;5075342;28;20037;-74
2023/04/09 02:11:28;;;;;;;47.77;32.07;;;;;;;;;;5068717;28;20092;-74
2023/04/09 02:13:55;;;;;;;48.20;30.27;;;;;;;;;;5070058;28;20017;-73
2023/04/09 02:16:24;;;;;;;44.70;31.50;;;;;;;;;;5086714;28;20024;-74
2023/04/09 02:19:00;;;;;;;47.80;30.63;;;;;;;;;;5072082;28;20061;-74
2023/04/09 02:21:27;;;;;;;46.80;30.47;;;;;;;;;;5086899;28;21044;-74
2023/04/09 02:23:55;;;;;;;43.10;30.43;;;;;;;;;;5069190;28;20093;-74
2023/04/09 02:26:22;;;;;;;45.10;31.43;;;;;;;;;;5068413;28;20013;-74
2023/04/09 02:28:51;;;;;;;48.30;31.23;;;;;;;;;;5068909;28;20100;-74
2023/04/09 02:31:17;;;;;;;48.27;31.97;;;;;;;;;;5086493;28;20044;-73
2023/04/09 02:33:43;;;;;;;46.23;31.50;;;;;;;;;;5069454;28;20032;-74
2023/04/09 02:36:12;;;;;;;52.27;32.30;;;;;;;;;;5086725;28;20033;-74
2023/04/09 02:38:42;;;;;;;48.03;32.77;;;;;;;;;;5087746;28;20046;-74
2023/04/09 02:41:13;;;;;;;50.43;31.93;;;;;;;;;;5087072;28;20019;-74
2023/04/09 02:43:39;;;;;;;44.93;30.17;;;;;;;;;;5069274;28;20036;-75
2023/04/09 02:46:08;;;;;;;43.87;31.13;;;;;;;;;;5070926;28;20019;-74
2023/04/09 02:48:36;;;;;;;46.93;32.07;;;;;;;;;;5073546;28;20017;-74
2023/04/09 02:51:04;;;;;;;46.33;30.07;;;;;;;;;;5076704;28;20029;-74
2023/04/09 02:53:40;;;;;;;46.53;31.70;;;;;;;;;;5072031;28;20084;-75
2023/04/09 02:56:06;;;;;;;45.80;31.10;;;;;;;;;;5075206;28;20048;-73
2023/04/09 02:58:38;;;;;;;44.87;29.97;;;;;;;;;;5074691;28;20260;-74
2023/04/09 03:01:04;;;;;;;44.30;30.38;;;;;;;;;;5090171;28;20004;-75
2023/04/09 03:03:32;;;;;;;48.60;30.73;;;;;;;;;;5086447;28;20354;-74
2023/04/09 03:05:58;;;;;;;46.93;32.27;;;;;;;;;;5074271;28;20025;-74
2023/04/09 03:08:24;;;;;;;47.93;32.13;;;;;;;;;;5091044;28;20016;-74
2023/04/09 03:10:50;;;;;;;47.50;31.23;;;;;;;;;;5072621;28;20048;-74
2023/04/09 03:13:16;;;;;;;51.83;32.60;;;;;;;;;;5089376;28;20037;-74
2023/04/09 03:15:42;;;;;;;47.70;31.60;;;;;;;;;;5075166;28;20035;-74
2023/04/09 03:18:08;;;;;;;45.73;31.33;;;;;;;;;;5071394;28;20009;-74
2023/04/09 03:20:37;;;;;;;48.63;32.67;;;;;;;;;;5074730;28;20032;-74
2023/04/09 03:23:04;;;;;;;48.47;32.07;;;;;;;;;;5090947;28;20041;-74
2023/04/09 03:25:32;;;;;;;51.97;33.80;;;;;;;;;;5089426;28;20036;-74
2023/04/09 03:27:58;;;;;;;53.57;33.53;;;;;;;;;;5075557;28;20032;-74
2023/04/09 03:30:26;;;;;;;55.13;35.90;;;;;;;;;;5088151;28;20017;-74
2023/04/09 03:32:52;;;;;;;52.70;34.63;;;;;;;;;;5076715;28;20032;-75
2023/04/09 03:35:18;;;;;;;50.03;34.73;;;;;;;;;;5076652;28;20055;-74
2023/04/09 03:37:47;;;;;;;47.93;32.23;;;;;;;;;;5077053;28;20047;-75
2023/04/09 03:40:13;;;;;;;55.03;34.20;;;;;;;;;;5089563;28;20076;-75
2023/04/09 03:42:43;;;;;;;49.40;32.00;;;;;;;;;;5075642;28;20017;-74
2023/04/09 03:45:10;;;;;;;51.10;32.73;;;;;;;;;;5076050;28;20036;-74
2023/04/09 03:47:36;;;;;;;48.37;31.93;;;;;;;;;;5076394;28;20033;-74
2023/04/09 03:50:02;;;;;;;51.77;31.97;;;;;;;;;;5075237;28;20028;-74
2023/04/09 03:52:28;;;;;;;52.33;33.50;;;;;;;;;;5072217;28;20017;-74
2023/04/09 03:54:54;;;;;;;54.03;32.23;;;;;;;;;;5070952;28;20024;-75
2023/04/09 03:57:20;;;;;;;55.47;34.23;;;;;;;;;;5089020;28;21005;-74
2023/04/09 03:59:48;;;;;;;51.77;32.37;;;;;;;;;;5070076;28;20099;-75
2023/04/09 04:02:17;;;;;;;52.67;32.37;;;;;;;;;;5073705;28;20082;-75
2023/04/09 04:04:43;;;;;;;49.17;31.97;;;;;;;;;;5072261;28;20061;-74
2023/04/09 04:07:09;;;;;;;52.33;32.67;;;;;;;;;;5070691;28;21116;-74
2023/04/09 04:09:37;;;;;;;55.00;33.90;;;;;;;;;;5069623;28;20031;-74
2023/04/09 04:12:05;;;;;;;50.17;32.10;;;;;;;;;;5074466;28;20025;-74
2023/04/09 04:14:34;;;;;;;50.27;31.73;;;;;;;;;;5069774;28;20040;-74
2023/04/09 04:17:00;;;;;;;45.77;31.47;;;;;;;;;;5073995;28;20013;-75
2023/04/09 04:19:26;;;;;;;49.80;31.53;;;;;;;;;;5068320;28;20033;-75
2023/04/09 04:21:52;;;;;;;45.23;30.17;;;;;;;;;;5086453;28;20028;-74
2023/04/09 04:24:20;;;;;;;48.43;30.57;;;;;;;;;;5067851;28;20043;-74
2023/04/09 04:26:46;;;;;;;48.33;31.17;;;;;;;;;;5085953;28;20024;-74
2023/04/09 04:29:12;;;;;;;47.20;30.17;;;;;;;;;;5087022;28;20039;-74
2023/04/09 04:31:43;;;;;;;50.73;31.37;;;;;;;;;;5068583;28;20092;-74
2023/04/09 04:34:11;;;;;;;47.43;29.97;;;;;;;;;;5087870;28;20050;-73
2023/04/09 04:36:37;;;;;;;49.40;30.47;;;;;;;;;;5087433;28;20448;-73
2023/04/09 04:39:04;;;;;;;48.07;31.23;;;;;;;;;;5085543;28;20028;-74
2023/04/09 04:41:30;;;;;;;49.13;31.23;;;;;;;;;;5069881;28;20024;-74
2023/04/09 04:43:56;;;;;;;49.03;31.27;;;;;;;;;;5085509;28;20108;-73
2023/04/09 04:46:22;;;;;;;48.30;30.90;;;;;;;;;;5070403;28;20016;-74
2023/04/09 04:48:48;;;;;;;49.67;31.73;;;;;;;;;;5072352;28;20017;-74
2023/04/09 04:51:17;;;;;;;52.40;31.20;;;;;;;;;;5067492;28;20052;-74
2023/04/09 04:53:50;;;;;;;51.10;31.40;;;;;;;;;;5072256;28;20108;-73
2023/04/09 04:56:16;;;;;;;45.27;29.00;;;;;;;;;;5066908;28;20033;-74
2023/04/09 04:58:42;;;;;;;46.83;29.33;;;;;;;;;;5071770;28;20097;-74
2023/04/09 05:01:08;;;;;;;46.00;28.90;;;;;;;;;;5083647;28;20080;-74
2023/04/09 05:03:34;;;;;;;48.00;29.47;;;;;;;;;;5071513;28;20071;-74
2023/04/09 05:06:00;;;;;;;49.90;31.43;;;;;;;;;;5067112;28;20021;-74
2023/04/09 05:08:26;;;;;;;48.73;29.77;;;;;;;;;;5085216;28;20035;-74
2023/04/09 05:10:54;;;;;;;48.67;29.43;;;;;;;;;;5065678;28;20024;-74
2023/04/09 05:13:21;;;;;;;49.07;30.80;;;;;;;;;;5084942;28;20016;-74
2023/04/09 05:15:47;;;;;;;51.00;29.70;;;;;;;;;;5062637;28;20031;-73
2023/04/09 05:18:13;;;;;;;47.50;30.67;;;;;;;;;;5071102;28;20033;-74
2023/04/09 05:20:39;;;;;;;44.23;29.00;;;;;;;;;;5072641;28;20024;-74
2023/04/09 05:23:11;;;;;;;47.70;30.00;;;;;;;;;;5071413;28;20032;-73
2023/04/09 05:25:37;;;;;;;53.28;31.23;;;;;;;;;;5067868;28;20071;-74
2023/04/09 05:28:03;;;;;;;43.87;29.03;;;;;;;;;;5069141;28;20017;-73
2023/04/09 05:30:29;;;;;;;45.80;30.00;;;;;;;;;;5084862;28;20052;-74
2023/04/09 05:32:57;;;;;;;41.80;27.00;;;;;;;;;;5086289;28;20023;-73
2023/04/09 05:35:26;;;;;;;42.93;28.37;;;;;;;;;;5080720;28;20020;-73
2023/04/09 05:37:52;;;;;;;43.13;26.63;;;;;;;;;;5068083;28;20024;-73
2023/04/09 05:40:19;;;;;;;41.23;27.97;;;;;;;;;;5085831;28;20036;-74
2023/04/09 05:42:47;;;;;;;43.77;28.13;;;;;;;;;;5069435;28;20016;-74
2023/04/09 05:45:13;;;;;;;42.47;27.40;;;;;;;;;;5071554;28;20024;-74
2023/04/09 05:47:39;;;;;;;46.83;29.07;;;;;;;;;;5070096;28;20017;-73
2023/04/09 05:50:05;;;;;;;44.23;28.97;;;;;;;;;;5068908;28;20110;-74
2023/04/09 05:52:31;;;;;;;44.17;27.77;;;;;;;;;;5087133;28;20028;-74
2023/04/09 05:54:57;;;;;;;45.43;29.17;;;;;;;;;;5070830;28;20103;-74
2023/04/09 05:57:23;;;;;;;46.07;28.70;;;;;;;;;;5071169;28;20029;-73
2023/04/09 05:59:49;;;;;;;41.73;27.40;;;;;;;;;;5072935;28;20111;-73
2023/04/09 06:02:18;;;;;;;41.17;27.80;;;;;;;;;;5073338;28;20016;-74
2023/04/09 06:04:46;;;;;;;51.70;33.60;;;;;;;;;;5073519;28;20109;-73
2023/04/09 06:07:12;;;;;;;45.03;28.50;;;;;;;;;;5087258;28;20366;-74
2023/04/09 06:09:38;;;;;;;43.83;29.30;;;;;;;;;;5073414;28;20673;-74
2023/04/09 06:12:04;;;;;;;41.97;26.33;;;;;;;;;;5071830;28;20020;-74
2023/04/09 06:14:31;;;;;;;43.43;28.13;;;;;;;;;;5071157;28;20022;-74
2023/04/09 06:16:58;;;;;;;39.60;26.37;;;;;;;;;;5087296;28;20036;-74
2023/04/09 06:19:27;;;;;;;40.57;26.57;;;;;;;;;;5070230;28;20028;-74
2023/04/09 06:21:57;;;;;;;42.90;26.47;;;;;;;;;;5087402;28;20090;-74
2023/04/09 06:24:23;;;;;;;38.00;24.87;;;;;;;;;;5072393;28;20038;-74
2023/04/09 06:26:50;;;;;;;36.03;22.97;;;;;;;;;;5090293;28;20041;-74
2023/04/09 06:29:16;;;;;;;41.97;23.80;;;;;;;;;;5074820;28;20084;-74
2023/04/09 06:31:42;;;;;;;35.30;23.57;;;;;;;;;;5073725;28;20032;-73
2023/04/09 06:34:10;;;;;;;36.13;21.13;;;;;;;;;;5089721;28;20028;-73
2023/04/09 06:36:39;;;;;;;38.40;23.03;;;;;;;;;;5091831;28;20096;-74
2023/04/09 06:39:07;;;;;;;33.83;21.03;;;;;;;;;;5077750;28;20040;-74
2023/04/09 06:41:33;;;;;;;29.77;18.50;;;;;;;;;;5077949;28;20020;-74
2023/04/09 06:43:59;;;;;;;30.27;18.33;;;;;;;;;;5074221;28;20037;-74
2023/04/09 06:46:25;;;;;;;26.47;16.60;;;;;;;;;;5075392;28;20032;-74
2023/04/09 06:48:52;;;;;;;26.13;17.23;;;;;;;;;;5074129;28;20020;-74
2023/04/09 06:51:18;;;;;;;28.73;17.40;;;;;;;;;;5072249;28;20008;-74
2023/04/09 06:53:46;;;;;;;22.30;14.80;;;;;;;;;;5071828;28;20021;-74
2023/04/09 06:56:12;;;;;;;26.87;16.90;;;;;;;;;;5089969;28;20017;-73
2023/04/09 06:58:38;;;;;;;23.03;14.53;;;;;;;;;;5070719;28;20017;-72
2023/04/09 07:01:05;;;;;;;22.20;14.13;;;;;;;;;;5071511;28;20038;-74
2023/04/09 07:03:31;;;;;;;23.27;15.27;;;;;;;;;;5075994;28;20907;-75
2023/04/09 07:05:57;;;;;;;22.90;14.60;;;;;;;;;;5073216;28;20032;-74
2023/04/09 07:08:24;;;;;;;24.77;15.27;;;;;;;;;;5073130;28;20032;-73
2023/04/09 07:10:57;;;;;;;21.37;13.87;;;;;;;;;;5091749;28;20032;-74
2023/04/09 07:13:23;;;;;;;22.67;14.13;;;;;;;;;;5073410;28;20048;-73
2023/04/09 07:15:49;;;;;;;20.23;13.77;;;;;;;;;;5091142;28;20036;-74
2023/04/09 07:18:15;;;;;;;21.90;13.97;;;;;;;;;;5073795;28;20021;-74
2023/04/09 07:20:41;;;;;;;20.50;13.30;;;;;;;;;;5072814;28;20036;-74
2023/04/09 07:23:07;;;;;;;21.53;13.07;;;;;;;;;;5073905;28;20025;-73
2023/04/09 07:25:33;;;;;;;23.10;14.17;;;;;;;;;;5077754;28;20037;-74
2023/04/09 07:27:59;;;;;;;21.03;13.80;;;;;;;;;;5074307;28;20028;-75
2023/04/09 07:30:26;;;;;;;20.67;13.17;;;;;;;;;;5072587;28;20009;-74
2023/04/09 07:32:52;;;;;;;19.93;13.23;;;;;;;;;;5090775;28;20016;-75
2023/04/09 07:35:18;;;;;;;19.83;13.10;;;;;;;;;;5086494;28;20033;-74
2023/04/09 07:37:44;;;;;;;20.87;13.33;;;;;;;;;;5072905;28;20013;-76
2023/04/09 07:40:10;;;;;;;20.30;12.87;;;;;;;;;;5074091;28;20020;-76
2023/04/09 07:42:37;;;;;;;18.33;12.50;;;;;;;;;;5089658;28;20115;-76
2023/04/09 07:45:06;;;;;;;18.63;12.57;;;;;;;;;;5090258;28;20040;-75
2023/04/09 07:47:32;;;;;;;19.90;12.50;;;;;;;;;;5073956;28;20016;-75
2023/04/09 07:50:01;;;;;;;18.93;12.27;;;;;;;;;;5074241;28;20035;-75
2023/04/09 07:52:29;;;;;;;17.47;12.20;;;;;;;;;;5089095;28;20048;-75
2023/04/09 07:54:55;;;;;;;18.20;11.90;;;;;;;;;;5073950;28;20005;-75
2023/04/09 07:57:21;;;;;;;18.13;11.47;;;;;;;;;;5077014;28;20055;-76
2023/04/09 07:59:50;;;;;;;16.93;10.43;;;;;;;;;;5075276;28;20024;-75
2023/04/09 08:02:16;;;;;;;16.33;10.83;;;;;;;;;;5074584;28;20020;-75
2023/04/09 08:04:42;;;;;;;18.13;10.60;;;;;;;;;;5089369;28;20096;-76
2023/04/09 08:07:08;;;;;;;15.80;11.03;;;;;;;;;;5075954;28;20016;-76
2023/04/09 08:09:34;;;;;;;15.63;10.70;;;;;;;;;;5074579;28;20036;-76
2023/04/09 08:12:00;;;;;;;14.23;9.97;;;;;;;;;;5073119;28;20017;-76
2023/04/09 08:14:26;;;;;;;18.60;10.33;;;;;;;;;;5091389;28;20039;-75
2023/04/09 08:16:52;;;;;;;19.43;11.00;;;;;;;;;;5077861;28;20044;-78
2023/04/09 08:19:19;;;;;;;15.20;9.83;;;;;;;;;;5091747;28;20028;-78
2023/04/09 08:21:48;;;;;;;15.30;10.00;;;;;;;;;;5073977;28;20029;-77
2023/04/09 08:24:14;;;;;;;17.17;10.90;;;;;;;;;;5090634;28;20032;-76
2023/04/09 08:26:41;;;;;;;15.93;10.03;;;;;;;;;;5076527;28;20036;-74
2023/04/09 08:29:07;;;;;;;14.13;9.07;;;;;;;;;;5074240;28;20039;-76
2023/04/09 08:31:34;;;;;;;11.40;8.03;;;;;;;;;;5084478;28;20017;-76
2023/04/09 08:34:02;;;;;;;13.63;8.57;;;;;;;;;;5074587;28;20027;-76
2023/04/09 08:36:28;;;;;;;10.80;7.53;;;;;;;;;;5074510;28;20008;-76
2023/04/09 08:38:59;;;;;;;11.43;7.80;;;;;;;;;;5076377;28;20130;-76
2023/04/09 08:41:28;;;;;;;10.53;7.27;;;;;;;;;;5074493;28;20076;-76
2023/04/09 08:43:54;;;;;;;12.97;7.20;;;;;;;;;;5074820;28;20041;-76
2023/04/09 08:46:20;;;;;;;13.30;8.57;;;;;;;;;;5090110;28;20090;-74
2023/04/09 08:48:47;;;;;;;13.40;8.17;;;;;;;;;;5088016;28;20009;-74
2023/04/09 08:51:16;;;;;;;13.20;7.97;;;;;;;;;;5073107;28;20050;-73
2023/04/09 08:53:44;;;;;;;11.53;7.97;;;;;;;;;;5075121;28;20084;-73
2023/04/09 08:56:12;;;;;;;11.80;7.57;;;;;;;;;;5084274;28;20013;-74
2023/04/09 08:58:41;;;;;;;11.10;8.40;;;;;;;;;;5071887;28;20016;-74
2023/04/09 09:01:17;;;;;;;11.30;7.83;;;;;;;;;;5075515;28;20021;-73
2023/04/09 09:04:03;;;;;;;9.40;6.97;;;;;;;;;;5075483;28;20017;-73
2023/04/09 09:06:31;;;;;;;9.83;7.37;;;;;;;;;;5082887;28;20035;-73
2023/04/09 09:09:10;;;;;;;11.90;7.97;;;;;;;;;;5084218;28;20016;-73
2023/04/09 09:11:40;;;;;;;10.93;7.13;;;;;;;;;;5089295;28;20041;-74
2023/04/09 09:14:06;;;;;;;13.07;7.83;;;;;;;;;;5072962;28;20028;-74
2023/04/09 09:16:33;;;;;;;11.30;6.93;;;;;;;;;;5074316;28;20016;-74
2023/04/09 09:19:00;;;;;;;10.93;7.00;;;;;;;;;;5092372;28;20110;-73
2023/04/09 09:21:27;;;;;;;8.80;6.40;;;;;;;;;;5085092;28;20024;-73
2023/04/09 09:23:53;;;;;;;8.13;5.60;;;;;;;;;;5087657;28;20051;-74
2023/04/09 09:26:27;;;;;;;8.40;5.73;;;;;;;;;;5085922;28;20088;-74
2023/04/09 09:28:54;;;;;;;7.03;5.30;;;;;;;;;;5071511;28;20084;-73
2023/04/09 09:31:21;;;;;;;7.47;5.30;;;;;;;;;;5073339;28;20020;-73
2023/04/09 09:33:47;;;;;;;8.23;6.30;;;;;;;;;;5090111;28;20032;-74
2023/04/09 09:36:15;;;;;;;8.70;5.93;;;;;;;;;;5072680;28;20013;-73
2023/04/09 09:38:55;;;;;;;7.87;6.17;;;;;;;;;;5073201;28;20043;-74
2023/04/09 09:41:24;;;;;;;12.57;7.20;;;;;;;;;;5083088;28;20035;-73
2023/04/09 09:43:51;;;;;;;10.37;6.90;;;;;;;;;;5075168;28;20097;-74
2023/04/09 09:46:17;;;;;;;8.73;6.10;;;;;;;;;;5073090;28;20234;-74
2023/04/09 09:48:45;;;;;;;8.33;6.07;;;;;;;;;;5088267;28;20035;-75
2023/04/09 09:51:12;;;;;;;8.13;6.10;;;;;;;;;;5073610;28;20134;-73
2023/04/09 09:53:38;;;;;;;8.77;5.97;;;;;;;;;;5075186;28;20085;-74
2023/04/09 09:56:05;;;;;;;7.93;5.90;;;;;;;;;;5079791;28;20044;-74
2023/04/09 09:58:40;;;;;;;7.73;5.83;;;;;;;;;;5074678;28;20032;-74
2023/04/09 10:01:10;;;;;;;8.73;5.77;;;;;;;;;;5070826;28;20199;-74
2023/04/09 10:03:37;;;;;;;10.57;6.70;;;;;;;;;;5088756;28;20082;-75
2023/04/09 10:06:03;;;;;;;8.10;5.73;;;;;;;;;;5081607;28;20024;-74
2023/04/09 10:08:32;;;;;;;13.07;6.90;;;;;;;;;;5083496;28;20011;-73
2023/04/09 10:10:58;;;;;;;8.70;5.97;;;;;;;;;;5089215;28;20047;-73
2023/04/09 10:13:28;;;;;;;9.10;6.37;;;;;;;;;;5083948;28;20012;-73
2023/04/09 10:15:56;;;;;;;8.63;6.77;;;;;;;;;;5087118;28;20021;-74
2023/04/09 10:18:22;;;;;;;8.63;6.23;;;;;;;;;;5071390;28;20084;-75
2023/04/09 10:20:50;;;;;;;7.93;6.03;;;;;;;;;;5086139;28;20024;-76
2023/04/09 10:23:29;;;;;;;10.03;6.93;;;;;;;;;;5071585;28;20085;-76
2023/04/09 10:25:55;;;;;;;8.13;6.00;;;;;;;;;;5072642;28;20036;-77
2023/04/09 10:28:22;;;;;;;8.90;6.63;;;;;;;;;;5071000;28;20031;-76
2023/04/09 10:30:48;;;;;;;10.13;5.93;;;;;;;;;;5072901;28;20112;-73
2023/04/09 10:33:15;;;;;;;9.37;6.50;;;;;;;;;;5078678;28;20021;-75
2023/04/09 10:35:46;;;;;;;8.67;6.60;;;;;;;;;;5072659;28;20020;-75
2023/04/09 10:38:14;;;;;;;9.47;6.70;;;;;;;;;;5074632;28;20047;-75
2023/04/09 10:40:41;;;;;;;10.23;6.87;;;;;;;;;;5069263;28;20033;-75
2023/04/09 10:43:08;;;;;;;8.80;6.87;;;;;;;;;;5071215;28;20028;-74
2023/04/09 10:45:41;;;;;;;9.37;6.73;;;;;;;;;;5082377;28;20044;-74
2023/04/09 10:48:11;;;;;;;10.53;6.70;;;;;;;;;;5076282;28;20096;-75
2023/04/09 10:50:38;;;;;;;9.23;6.40;;;;;;;;;;5085390;28;20017;-76
2023/04/09 10:53:04;;;;;;;10.10;6.63;;;;;;;;;;5069110;28;20024;-76
2023/04/09 10:55:37;;;;;;;8.57;6.57;;;;;;;;;;5066347;28;20027;-78
2023/04/09 10:58:07;;;;;;;11.40;7.40;;;;;;;;;;5067004;28;20041;-78
2023/04/09 11:00:36;;;;;;;8.67;6.73;;;;;;;;;;5068163;28;20095;-78
2023/04/09 11:03:03;;;;;;;7.73;5.83;;;;;;;;;;5068614;28;20052;-79
2023/04/09 11:05:39;;;;;;;8.80;6.93;;;;;;;;;;5070913;28;20088;-79
2023/04/09 11:08:05;;;;;;;9.38;7.15;;;;;;;;;;5067183;28;20032;-79
2023/04/09 11:10:34;;;;;;;9.80;7.88;;;;;;;;;;5070832;28;20016;-78
2023/04/09 11:13:01;;;;;;;8.85;7.30;;;;;;;;;;5089466;28;20020;-77
2023/04/09 11:15:27;;;;;;;8.70;6.90;;;;;;;;;;5083121;28;20284;-76
2023/04/09 11:17:53;;;;;;;9.87;7.43;;;;;;;;;;5070321;28;20043;-76
2023/04/09 11:20:22;;;;;;;10.52;7.15;;;;;;;;;;5089528;28;20017;-76
2023/04/09 11:22:49;;;;;;;9.23;6.97;;;;;;;;;;5069698;28;20199;-76
2023/04/09 11:25:25;;;;;;;13.43;9.32;;;;;;;;;;5074178;28;20063;-75
2023/04/09 11:27:51;;;;;;;8.85;7.50;;;;;;;;;;5073183;28;20031;-76
2023/04/09 11:30:18;;;;;;;10.13;7.87;;;;;;;;;;5072596;28;20050;-76
2023/04/09 11:32:44;;;;;;;9.00;7.00;;;;;;;;;;5088526;28;20012;-76
2023/04/09 11:35:17;;;;;;;8.17;6.27;;;;;;;;;;5069259;28;20107;-76
2023/04/09 11:37:46;;;;;;;8.17;6.60;;;;;;;;;;5088025;28;20961;-76
2023/04/09 11:40:16;;;;;;;8.37;6.73;;;;;;;;;;5069172;28;20025;-76
2023/04/09 11:42:43;;;;;;;8.40;6.80;;;;;;;;;;5073935;28;20025;-76
2023/04/09 11:45:10;;;;;;;9.93;7.30;;;;;;;;;;5069511;28;20036;-76
2023/04/09 11:47:36;;;;;;;9.55;7.38;;;;;;;;;;5071294;28;20027;-76
2023/04/09 11:50:05;;;;;;;9.30;6.97;;;;;;;;;;5086861;28;20074;-75
2023/04/09 11:52:34;;;;;;;8.18;6.63;;;;;;;;;;5072269;28;20100;-76
2023/04/09 11:55:00;;;;;;;10.98;8.10;;;;;;;;;;5087060;28;20046;-76
2023/04/09 11:57:35;;;;;;;8.73;6.85;;;;;;;;;;5068107;28;20021;-76
2023/04/09 12:00:05;;;;;;;9.75;7.60;;;;;;;;;;5072201;28;21331;-76
2023/04/09 12:02:31;;;;;;;9.20;6.95;;;;;;;;;;5076299;28;20088;-77
2023/04/09 12:05:02;;;;;;;7.88;6.25;;;;;;;;;;5070936;28;20062;-76
2023/04/09 12:07:32;;;;;;;7.72;5.85;;;;;;;;;;5074968;28;20029;-76
2023/04/09 12:10:02;;;;;;;7.18;5.93;;;;;;;;;;5069377;28;20048;-76
2023/04/09 12:12:28;;;;;;;7.07;6.18;;;;;;;;;;5073626;28;20024;-75
2023/04/09 12:14:58;;;;;;;6.93;5.80;;;;;;;;;;5081998;28;20025;-76
2023/04/09 12:17:24;;;;;;;7.20;5.82;;;;;;;;;;5083084;28;20017;-76
2023/04/09 12:19:50;;;;;;;9.68;7.40;;;;;;;;;;5068768;28;20097;-76
2023/04/09 12:22:16;;;;;;;11.73;7.43;;;;;;;;;;5068577;28;20036;-75
2023/04/09 12:24:42;;;;;;;9.25;7.45;;;;;;;;;;5070019;28;20072;-76
2023/04/09 12:27:09;;;;;;;7.30;5.82;;;;;;;;;;5071002;28;20012;-76
2023/04/09 12:29:35;;;;;;;9.98;7.35;;;;;;;;;;5085349;28;20039;-75
2023/04/09 12:32:01;;;;;;;9.20;6.80;;;;;;;;;;5068730;28;20012;-75
2023/04/09 12:34:27;;;;;;;9.32;6.78;;;;;;;;;;5065616;28;20127;-76
2023/04/09 12:36:53;;;;;;;8.23;6.28;;;;;;;;;;5085109;28;20032;-76
2023/04/09 12:39:19;;;;;;;8.52;6.65;;;;;;;;;;5085428;28;20050;-75
2023/04/09 12:41:45;;;;;;;7.60;6.15;;;;;;;;;;5082507;28;20032;-77
2023/04/09 12:44:11;;;;;;;7.72;5.80;;;;;;;;;;5070588;28;20036;-76
2023/04/09 12:46:37;;;;;;;7.60;5.60;;;;;;;;;;5075533;28;20025;-73
2023/04/09 12:49:04;;;;;;;7.00;5.70;;;;;;;;;;5065134;28;20055;-74
2023/04/09 12:51:33;;;;;;;7.90;6.15;;;;;;;;;;5064661;28;20024;-74
2023/04/09 12:53:59;;;;;;;6.25;5.03;;;;;;;;;;5068312;28;20017;-75
2023/04/09 12:56:32;;;;;;;7.28;5.82;;;;;;;;;;5066822;28;20024;-75
2023/04/09 12:58:58;;;;;;;6.97;5.40;;;;;;;;;;5070252;28;20143;-76
2023/04/09 13:01:25;;;;;;;8.95;6.63;;;;;;;;;;5085678;28;20047;-75
2023/04/09 13:03:53;;;;;;;7.13;5.53;;;;;;;;;;5066335;28;20028;-75
2023/04/09 13:06:19;;;;;;;8.45;5.43;;;;;;;;;;5081692;28;20052;-76
2023/04/09 13:08:45;;;;;;;6.90;5.72;;;;;;;;;;5071226;28;20024;-77
2023/04/09 13:11:11;;;;;;;6.88;5.50;;;;;;;;;;5079957;28;20032;-76
2023/04/09 13:13:37;;;;;;;6.63;5.47;;;;;;;;;;5071652;28;20048;-75
2023/04/09 13:16:09;;;;;;;8.23;5.38;;;;;;;;;;5070374;28;20088;-76
2023/04/09 13:18:37;;;;;;;6.97;5.22;;;;;;;;;;5072975;28;20357;-76
2023/04/09 13:21:03;;;;;;;5.70;5.00;;;;;;;;;;5068770;28;20028;-75
2023/04/09 13:23:32;;;;;;;5.90;5.00;;;;;;;;;;5083794;28;20043;-76
2023/04/09 13:26:03;;;;;;;6.35;5.30;;;;;;;;;;5085738;28;20024;-75
2023/04/09 13:28:36;;;;;;;7.82;6.10;;;;;;;;;;5069288;28;20016;-75
2023/04/09 13:31:02;;;;;;;6.47;5.22;;;;;;;;;;5066212;28;20032;-75
2023/04/09 13:33:28;;;;;;;6.38;5.60;;;;;;;;;;5085362;28;20009;-75
2023/04/09 13:35:57;;;;;;;7.13;5.50;;;;;;;;;;5074883;28;20044;-74
2023/04/09 13:38:25;;;;;;;5.93;5.32;;;;;;;;;;5069002;28;20013;-75
2023/04/09 13:40:51;;;;;;;7.55;4.78;;;;;;;;;;5072418;28;20025;-74
2023/04/09 13:43:17;;;;;;;6.85;5.63;;;;;;;;;;5071642;28;20437;-75
2023/04/09 13:45:43;;;;;;;6.13;5.20;;;;;;;;;;5070836;28;20041;-74
2023/04/09 13:48:09;;;;;;;5.47;4.93;;;;;;;;;;5082620;28;20093;-74
2023/04/09 13:50:35;;;;;;;7.45;5.80;;;;;;;;;;5087521;28;20162;-74
2023/04/09 13:53:04;;;;;;;7.13;5.35;;;;;;;;;;5087110;28;20021;-74
2023/04/09 13:55:30;;;;;;;5.97;5.05;;;;;;;;;;5073606;28;20092;-74
2023/04/09 13:57:56;;;;;;;6.85;5.50;;;;;;;;;;5088000;28;20028;-74
2023/04/09 14:00:22;;;;;;;5.70;4.93;;;;;;;;;;5087769;28;20025;-74
2023/04/09 14:02:48;;;;;;;8.88;6.00;;;;;;;;;;5077023;28;20086;-74
2023/04/09 14:05:14;;;;;;;6.85;5.15;;;;;;;;;;5086797;28;20055;-74
2023/04/09 14:07:42;;;;;;;6.80;5.32;;;;;;;;;;5071238;28;20025;-74
2023/04/09 14:10:09;;;;;;;7.70;5.85;;;;;;;;;;5084177;28;20027;-74
2023/04/09 14:12:35;;;;;;;7.65;5.05;;;;;;;;;;5066796;28;20024;-75
2023/04/09 14:15:01;;;;;;;8.52;5.47;;;;;;;;;;5059437;28;20028;-78
2023/04/09 14:17:27;;;;;;;4.65;4.25;;;;;;;;;;5046711;28;20056;-78
2023/04/09 14:19:56;;;;;;;6.38;5.28;;;;;;;;;;5046709;28;20460;-79
2023/04/09 14:22:22;;;;;;;7.15;5.53;;;;;;;;;;5050359;28;20025;-80
2023/04/09 14:24:48;;;;;;;6.28;5.15;;;;;;;;;;5049902;28;20024;-79
2023/04/09 14:27:17;;;;;;;6.35;4.75;;;;;;;;;;5047371;28;20061;-77
2023/04/09 14:29:43;;;;;;;5.75;4.97;;;;;;;;;;5063042;28;20064;-79